Time;durP1;ratioP1;P1;durP2;ratioP2;P2;SDS_P1;SDS_P2;PMS_P1;PMS_P2;Temp;Humidity;BMP_temperature;BMP_pressure;BME280_temperature;BME280_humidity;BME280_pressure;Samples;Min_cycle;Max_cycle;Signal;HPM_P1;HPM_P2
2023/10/06 00:00:40;;;;;;;3.17;1.13;;;;;;;10.33;nan;101325.75;2099286;28;20049;-78
2023/10/06 00:01:45;;;;;;;2.40;0.88;;;;;;;10.33;nan;101318.47;2107424;28;20040;-78
2023/10/06 00:02:51;;;;;;;2.90;0.85;;;;;;;10.36;nan;101320.66;2090567;28;20025;-78
2023/10/06 00:03:57;;;;;;;4.60;1.20;;;;;;;10.37;nan;101316.91;2091763;28;20665;-79
2023/10/06 00:05:11;;;;;;;2.13;0.73;;;;;;;10.38;nan;101318.53;2099656;28;20037;-77
2023/10/06 00:06:27;;;;;;;1.85;0.70;;;;;;;10.39;nan;101314.75;2100924;28;20085;-79
2023/10/06 00:07:34;;;;;;;2.17;0.98;;;;;;;10.39;nan;101319.34;2101369;28;20072;-80
2023/10/06 00:08:40;;;;;;;1.58;0.77;;;;;;;10.38;nan;101323.09;2099675;28;20017;-77
2023/10/06 00:09:45;;;;;;;1.92;0.73;;;;;;;10.38;nan;101326.59;2106581;28;20052;-77
2023/10/06 00:10:51;;;;;;;3.17;1.00;;;;;;;10.39;nan;101324.69;2099663;28;20914;-78
2023/10/06 00:11:54;;;;;;;2.03;0.90;;;;;;;10.40;nan;101331.69;2098932;28;20856;-76
2023/10/06 00:12:59;;;;;;;2.70;0.95;;;;;;;10.38;nan;101323.09;2083296;28;20120;-78
2023/10/06 00:14:00;;;;;;;3.30;0.90;;;;;;;10.39;nan;101330.09;2091497;28;20026;-77
2023/10/06 00:15:07;;;;;;;0.70;0.60;;;;;;;10.39;nan;101330.88;2090502;28;20046;-77
2023/10/06 00:16:09;;;;;;;3.50;0.75;;;;;;;10.38;nan;101329.28;2099993;28;20857;-79
2023/10/06 00:17:17;;;;;;;1.58;0.60;;;;;;;10.38;nan;101325.78;2090205;28;20919;-79
2023/10/06 00:18:19;;;;;;;2.30;0.77;;;;;;;10.37;nan;101337.59;2092482;28;20962;-78
2023/10/06 00:19:31;;;;;;;2.45;0.73;;;;;;;10.34;nan;101327.34;2099512;28;20017;-78
2023/10/06 00:20:42;;;;;;;2.03;0.60;;;;;;;10.31;nan;101334.06;2092150;28;20103;-79
2023/10/06 00:22:01;;;;;;;2.05;0.70;;;;;;;10.33;nan;101334.59;2094194;28;20038;-78
2023/10/06 00:23:06;;;;;;;4.38;0.93;;;;;;;10.35;nan;101328.97;2093180;28;20040;-79
2023/10/06 00:24:10;;;;;;;2.75;0.70;;;;;;;10.34;nan;101338.94;2095429;28;20088;-79
2023/10/06 00:25:12;;;;;;;1.33;0.70;;;;;;;10.33;nan;101336.50;2106335;28;20048;-79
2023/10/06 00:26:18;;;;;;;1.60;0.82;;;;;;;10.34;nan;101338.09;2113561;28;20040;-79
2023/10/06 00:27:29;;;;;;;1.10;0.60;;;;;;;10.35;nan;101327.09;2107582;28;20063;-78
2023/10/06 00:28:44;;;;;;;1.63;0.50;;;;;;;10.36;nan;101331.41;2103784;28;20016;-75
2023/10/06 00:29:54;;;;;;;2.70;0.85;;;;;;;10.39;nan;101336.25;2107854;28;20029;-74
2023/10/06 00:30:58;;;;;;;2.30;0.68;;;;;;;10.36;nan;101331.41;2107129;28;20041;-75
2023/10/06 00:32:21;;;;;;;3.50;0.70;;;;;;;10.38;nan;101328.47;2100801;28;20025;-75
2023/10/06 00:33:32;;;;;;;0.75;0.52;;;;;;;10.38;nan;101329.28;2093643;28;20040;-75
2023/10/06 00:34:37;;;;;;;2.30;0.60;;;;;;;10.34;nan;101328.19;2101487;28;20894;-75
2023/10/06 00:35:39;;;;;;;2.92;0.63;;;;;;;10.33;nan;101329.22;2090864;28;20894;-79
2023/10/06 00:36:41;;;;;;;3.15;0.70;;;;;;;10.32;nan;101330.31;2082335;28;20799;-80
2023/10/06 00:37:43;;;;;;;3.08;0.63;;;;;;;10.32;nan;101330.31;2099309;28;20047;-80
2023/10/06 00:38:53;;;;;;;0.90;0.50;;;;;;;10.31;nan;101334.06;2098598;28;20092;-76
2023/10/06 00:39:59;;;;;;;1.75;0.68;;;;;;;10.31;nan;101323.31;2092228;28;20068;-76
2023/10/06 00:41:06;;;;;;;0.80;0.52;;;;;;;10.31;nan;101331.38;2099151;28;20244;-76
2023/10/06 00:42:08;;;;;;;2.80;0.77;;;;;;;10.30;nan;101343.19;2091317;28;20040;-76
2023/10/06 00:43:15;;;;;;;3.65;0.60;;;;;;;10.32;nan;101337.56;2082085;28;20156;-77
2023/10/06 00:44:21;;;;;;;1.83;0.50;;;;;;;10.33;nan;101334.59;2084381;28;20092;-76
2023/10/06 00:45:25;;;;;;;2.08;0.60;;;;;;;10.34;nan;101330.03;2083766;28;20865;-76
2023/10/06 00:46:27;;;;;;;1.75;0.70;;;;;;;10.33;nan;101337.28;2099031;28;20866;-76
2023/10/06 00:47:38;;;;;;;2.35;0.95;;;;;;;10.32;nan;101330.31;2098501;28;20132;-77
2023/10/06 00:48:44;;;;;;;2.28;0.52;;;;;;;10.32;nan;101340.25;2092079;28;20032;-76
2023/10/06 00:49:46;;;;;;;2.28;0.47;;;;;;;10.26;nan;101331.34;2091739;28;20041;-76
2023/10/06 00:50:50;;;;;;;2.67;0.60;;;;;;;10.33;nan;101334.59;2107102;28;20066;-76
2023/10/06 00:51:53;;;;;;;1.50;0.82;;;;;;;10.34;nan;101328.19;2098659;28;20772;-76
2023/10/06 00:53:00;;;;;;;2.10;0.47;;;;;;;10.36;nan;101326.03;2100384;28;20881;-76
2023/10/06 00:54:01;;;;;;;1.85;0.50;;;;;;;10.38;nan;101323.91;2101879;28;20041;-75
2023/10/06 00:55:10;;;;;;;2.65;0.50;;;;;;;10.39;nan;101330.09;2089579;28;20716;-75
2023/10/06 00:56:15;;;;;;;3.67;0.52;;;;;;;10.41;nan;101333.34;2088512;28;20017;-76
2023/10/06 00:57:19;;;;;;;2.38;0.65;;;;;;;10.42;nan;101327.69;2090731;28;20025;-75
2023/10/06 00:58:23;;;;;;;2.75;0.80;;;;;;;10.43;nan;101326.63;2090893;28;20046;-76
2023/10/06 00:59:31;;;;;;;1.35;0.60;;;;;;;10.45;nan;101329.06;2090698;28;20033;-76
2023/10/06 01:00:37;;;;;;;2.38;0.73;;;;;;;10.48;nan;101322.34;2100116;28;20143;-75
2023/10/06 01:01:42;;;;;;;1.25;0.50;;;;;;;10.49;nan;101321.28;2090352;28;20046;-75
2023/10/06 01:02:46;;;;;;;4.35;0.90;;;;;;;10.50;nan;101330.94;2092534;28;20896;-75
2023/10/06 01:04:00;;;;;;;2.83;0.70;;;;;;;10.53;nan;101331.28;2098937;28;20896;-76
2023/10/06 01:05:08;;;;;;;1.90;0.60;;;;;;;10.51;nan;101329.91;2092098;28;20247;-76
2023/10/06 01:06:14;;;;;;;2.45;0.70;;;;;;;10.52;nan;101328.81;2083839;28;20084;-75
2023/10/06 01:07:17;;;;;;;3.08;0.60;;;;;;;10.52;nan;101323.44;2083814;28;20038;-75
2023/10/06 01:08:20;;;;;;;1.00;0.60;;;;;;;10.52;nan;101328.81;2098774;28;20035;-76
2023/10/06 01:09:30;;;;;;;2.10;0.50;;;;;;;10.53;nan;101327.75;2082257;28;20030;-75
2023/10/06 01:10:34;;;;;;;4.00;0.50;;;;;;;10.53;nan;101325.06;2095702;28;20349;-76
2023/10/06 01:11:59;;;;;;;1.17;0.50;;;;;;;10.53;nan;101325.06;2115158;28;20031;-76
2023/10/06 01:13:20;;;;;;;4.82;0.65;;;;;;;10.55;nan;101334.50;2095507;28;20041;-76
2023/10/06 01:14:26;;;;;;;1.63;0.60;;;;;;;10.57;nan;101336.94;2093216;28;20021;-77
2023/10/06 01:15:31;;;;;;;1.20;0.50;;;;;;;10.57;nan;101332.34;2092444;28;20060;-76
2023/10/06 01:16:35;;;;;;;1.20;0.43;;;;;;;10.59;nan;101334.78;2089941;28;20111;-76
2023/10/06 01:17:42;;;;;;;3.53;0.70;;;;;;;10.57;nan;101326.97;2092473;28;20136;-76
2023/10/06 01:18:52;;;;;;;2.53;0.68;;;;;;;10.59;nan;101332.09;2098673;28;20794;-77
2023/10/06 01:19:59;;;;;;;;;;;;;;;10.57;nan;101335.06;2091786;28;20029;-77
2023/10/06 01:21:16;;;;;;;3.85;0.70;;;;;;;10.58;nan;101333.16;2091972;28;19921;-77
2023/10/06 01:22:28;;;;;;;2.70;0.50;;;;;;;10.60;nan;101331.84;2092466;28;20207;-77
2023/10/06 01:23:34;;;;;;;2.85;0.70;;;;;;;10.59;nan;101334.78;2093369;28;20885;-77
2023/10/06 01:24:35;;;;;;;2.47;0.60;;;;;;;10.61;nan;101346.91;2089869;28;20114;-77
2023/10/06 01:25:39;;;;;;;1.35;0.75;;;;;;;10.61;nan;101343.41;2086060;28;20080;-77
2023/10/06 01:26:41;;;;;;;2.35;0.60;;;;;;;10.60;nan;101347.97;2090446;28;20032;-79
2023/10/06 01:27:44;;;;;;;3.63;1.05;;;;;;;10.58;nan;101344.72;2090226;28;20041;-79
2023/10/06 01:28:47;;;;;;;3.85;0.50;;;;;;;10.56;nan;101344.19;2082508;28;20181;-80
2023/10/06 01:29:53;;;;;;;1.55;0.57;;;;;;;10.57;nan;101345.00;2082029;28;20080;-79
2023/10/06 01:30:57;;;;;;;0.70;0.50;;;;;;;10.56;nan;101348.75;2091353;28;20144;-78
2023/10/06 01:32:05;;;;;;;0.82;0.50;;;;;;;10.55;nan;101349.81;2090355;28;20022;-78
2023/10/06 01:33:08;;;;;;;2.92;0.55;;;;;;;10.55;nan;101344.44;2100324;28;20838;-76
2023/10/06 01:34:10;;;;;;;2.47;0.50;;;;;;;10.55;nan;101344.44;2090102;28;20033;-77
2023/10/06 01:35:17;;;;;;;2.58;1.05;;;;;;;10.55;nan;101342.56;2082060;28;20084;-77
2023/10/06 01:36:22;;;;;;;1.90;0.60;;;;;;;10.55;nan;101344.44;2090634;28;20152;-77
2023/10/06 01:37:26;;;;;;;2.53;0.50;;;;;;;10.56;nan;101346.06;2099100;28;20988;-76
2023/10/06 01:38:29;;;;;;;2.45;0.60;;;;;;;10.52;nan;101343.06;2098400;28;20072;-77
2023/10/06 01:39:34;;;;;;;1.65;0.60;;;;;;;10.56;nan;101343.34;2098334;28;21043;-77
2023/10/06 01:40:45;;;;;;;1.42;0.60;;;;;;;10.55;nan;101341.75;2089636;28;20035;-77
2023/10/06 01:41:46;;;;;;;2.75;0.73;;;;;;;10.52;nan;101339.56;2084865;28;20042;-77
2023/10/06 01:42:48;;;;;;;1.02;0.38;;;;;;;10.51;nan;101332.59;2090711;28;20025;-76
2023/10/06 01:43:53;;;;;;;1.33;0.50;;;;;;;10.49;nan;101350.84;2099259;28;20033;-77
2023/10/06 01:45:02;;;;;;;2.05;0.60;;;;;;;10.47;nan;101342.25;2107086;28;20170;-77
2023/10/06 01:46:12;;;;;;;2.50;0.80;;;;;;;10.43;nan;101342.75;2098496;28;20116;-78
2023/10/06 01:47:18;;;;;;;1.25;0.40;;;;;;;10.41;nan;101344.88;2091015;28;20957;-77
2023/10/06 01:48:22;;;;;;;2.28;0.57;;;;;;;10.38;nan;101334.66;2098564;28;20072;-79
2023/10/06 01:49:25;;;;;;;2.58;0.60;;;;;;;10.38;nan;101342.72;2098351;28;20063;-78
2023/10/06 01:50:29;;;;;;;3.15;0.63;;;;;;;10.38;nan;101337.34;2106529;28;20024;-78
2023/10/06 01:51:38;;;;;;;3.50;0.57;;;;;;;10.37;nan;101349.16;2106777;28;20036;-82
2023/10/06 01:52:40;;;;;;;1.90;0.60;;;;;;;10.39;nan;101344.31;2099575;28;20063;-80
2023/10/06 01:53:52;;;;;;;1.98;0.50;;;;;;;10.41;nan;101350.28;2090719;28;20032;-79
2023/10/06 01:54:58;;;;;;;1.52;0.68;;;;;;;10.43;nan;101350.84;2090971;28;20037;-80
2023/10/06 01:56:07;;;;;;;1.60;0.60;;;;;;;10.43;nan;101345.44;2093711;28;20021;-80
2023/10/06 01:57:11;;;;;;;1.40;0.50;;;;;;;10.44;nan;101339.00;2091055;28;20064;-80
2023/10/06 01:58:13;;;;;;;2.13;0.68;;;;;;;10.48;nan;101346.56;2090368;28;20841;-78
2023/10/06 01:59:18;;;;;;;3.58;0.50;;;;;;;10.40;nan;101327.16;2089912;28;20854;-82
2023/10/06 02:00:31;;;;;;;2.05;0.55;;;;;;;10.47;nan;101342.25;2090980;28;20029;-78
2023/10/06 02:01:34;;;;;;;2.65;0.90;;;;;;;10.48;nan;101354.63;2100081;28;20044;-78
2023/10/06 02:02:40;;;;;;;0.95;0.60;;;;;;;10.46;nan;101344.09;2099358;28;20131;-79
2023/10/06 02:03:41;;;;;;;0.80;0.32;;;;;;;10.47;nan;101344.94;2089757;28;20033;-81
2023/10/06 02:04:45;;;;;;;1.95;0.60;;;;;;;10.48;nan;101344.66;2082010;28;20069;-79
2023/10/06 02:05:46;;;;;;;2.13;0.50;;;;;;;10.49;nan;101353.53;2090897;28;20025;-78
2023/10/06 02:06:48;;;;;;;3.72;0.73;;;;;;;10.49;nan;101350.84;2098032;28;20957;-78
2023/10/06 02:07:51;;;;;;;2.20;0.75;;;;;;;10.49;nan;101351.66;2082188;28;20155;-78
2023/10/06 02:08:54;;;;;;;1.30;0.60;;;;;;;10.51;nan;101359.47;2082015;28;20841;-78
2023/10/06 02:09:59;;;;;;;1.17;0.50;;;;;;;10.49;nan;101351.66;2091681;28;20892;-78
2023/10/06 02:11:01;;;;;;;2.65;0.70;;;;;;;10.51;nan;101354.91;2105320;28;20089;-78
2023/10/06 02:12:09;;;;;;;1.52;0.40;;;;;;;10.48;nan;101343.88;2098513;28;20032;-78
2023/10/06 02:13:11;;;;;;;2.55;0.57;;;;;;;10.49;nan;101348.97;2075196;28;20852;-78
2023/10/06 02:14:18;;;;;;;2.03;0.82;;;;;;;10.49;nan;101348.97;2082073;28;20042;-80
2023/10/06 02:15:20;;;;;;;2.05;0.50;;;;;;;10.45;nan;101339.81;2089796;28;20039;-76
2023/10/06 02:16:26;;;;;;;1.02;0.50;;;;;;;10.48;nan;101358.09;2081874;28;20868;-76
2023/10/06 02:17:34;;;;;;;1.48;0.60;;;;;;;10.48;nan;101362.69;2084896;28;20149;-75
2023/10/06 02:18:36;;;;;;;1.55;0.70;;;;;;;10.47;nan;101353.00;2081936;28;20834;-75
2023/10/06 02:19:40;;;;;;;1.98;0.55;;;;;;;10.47;nan;101363.75;2098534;28;20796;-75
2023/10/06 02:20:46;;;;;;;1.55;0.88;;;;;;;10.47;nan;101366.44;2097834;28;20074;-75
2023/10/06 02:21:50;;;;;;;1.88;0.60;;;;;;;10.49;nan;101372.34;2091924;28;20037;-75
2023/10/06 02:22:52;;;;;;;4.50;0.70;;;;;;;10.49;nan;101366.97;2098647;28;20029;-74
2023/10/06 02:24:03;;;;;;;2.03;0.57;;;;;;;10.50;nan;101369.44;2108691;28;20867;-75
2023/10/06 02:25:13;;;;;;;1.60;0.65;;;;;;;10.51;nan;101376.41;2108437;28;20072;-74
2023/10/06 02:26:19;;;;;;;3.25;0.80;;;;;;;10.50;nan;101368.59;2109589;28;20033;-75
2023/10/06 02:27:21;;;;;;;1.30;0.60;;;;;;;10.52;nan;101371.84;2090731;28;20025;-75
2023/10/06 02:28:25;;;;;;;3.28;0.47;;;;;;;10.54;nan;101375.09;2099688;28;20032;-75
2023/10/06 02:29:28;;;;;;;2.10;0.50;;;;;;;10.53;nan;101368.91;2107751;28;20092;-75
2023/10/06 02:30:40;;;;;;;2.67;0.60;;;;;;;10.56;nan;101367.56;2100057;28;20037;-75
2023/10/06 02:31:42;;;;;;;1.95;0.60;;;;;;;10.56;nan;101364.88;2092753;28;20911;-75
2023/10/06 02:32:44;;;;;;;2.25;0.60;;;;;;;10.59;nan;101364.34;2091459;28;20033;-78
2023/10/06 02:33:51;;;;;;;4.05;0.60;;;;;;;10.60;nan;101371.38;2092521;28;20026;-78
2023/10/06 02:34:54;;;;;;;4.28;1.08;;;;;;;10.60;nan;101369.50;2092395;28;20845;-78
2023/10/06 02:35:58;;;;;;;7.85;0.90;;;;;;;10.60;nan;101369.50;2099446;28;20176;-78
2023/10/06 02:37:00;;;;;;;1.17;0.68;;;;;;;10.60;nan;101371.38;2091235;28;20151;-76
2023/10/06 02:38:05;;;;;;;2.53;0.52;;;;;;;10.59;nan;101380.50;2084613;28;20146;-76
2023/10/06 02:39:07;;;;;;;0.80;0.50;;;;;;;10.55;nan;101377.50;2091339;28;20025;-76
2023/10/06 02:40:11;;;;;;;1.88;0.60;;;;;;;10.59;nan;101377.81;2091358;28;20772;-76
2023/10/06 02:41:18;;;;;;;2.75;0.70;;;;;;;10.61;nan;101383.75;2099040;28;20872;-75
2023/10/06 02:42:20;;;;;;;2.35;0.73;;;;;;;10.63;nan;101385.13;2100307;28;20025;-77
2023/10/06 02:43:23;;;;;;;2.15;0.55;;;;;;;10.61;nan;101381.84;2108300;28;20110;-76
2023/10/06 02:44:29;;;;;;;1.30;0.77;;;;;;;10.60;nan;101384.81;2091434;28;20041;-76
2023/10/06 02:45:37;;;;;;;2.10;0.50;;;;;;;10.60;nan;101379.44;2093076;28;20030;-76
2023/10/06 02:46:44;;;;;;;2.50;0.80;;;;;;;10.62;nan;101375.44;2099853;28;20049;-76
2023/10/06 02:47:57;;;;;;;;;;;;;;;10.65;nan;101379.47;2086072;28;20028;-76
2023/10/06 02:49:06;;;;;;;2.70;0.63;;;;;;;10.66;nan;101378.41;2096915;28;20039;-76
2023/10/06 02:50:17;;;;;;;2.55;0.60;;;;;;;10.64;nan;101377.84;2100600;28;20036;-76
2023/10/06 02:51:30;;;;;;;0.70;0.40;;;;;;;10.66;nan;101378.41;2094026;28;20163;-75
2023/10/06 02:52:37;;;;;;;1.80;0.57;;;;;;;10.65;nan;101371.38;2094891;28;20064;-76
2023/10/06 02:53:39;;;;;;;1.80;0.68;;;;;;;10.68;nan;101376.25;2101232;28;20838;-77
2023/10/06 02:56:28;;;;;;;1.45;0.73;;;;;;;10.66;nan;101373.84;2086018;28;20111;-77
2023/10/06 02:57:37;;;;;;;1.13;0.70;;;;;;;10.68;nan;101370.88;2073773;28;20072;-74
2023/10/06 02:58:41;;;;;;;2.22;0.80;;;;;;;10.69;nan;101372.50;2081926;28;20799;-75
2023/10/06 02:59:43;;;;;;;1.75;0.60;;;;;;;10.70;nan;101367.94;2091548;28;20021;-74
2023/10/06 03:00:50;;;;;;;3.03;0.80;;;;;;;10.69;nan;101369.81;2096293;28;20850;-74
2023/10/06 03:02:06;;;;;;;2.13;0.68;;;;;;;10.68;nan;101366.31;2116846;28;20024;-74
2023/10/06 03:03:18;;;;;;;1.83;0.70;;;;;;;10.68;nan;101370.88;2116249;28;20032;-75
2023/10/06 03:04:36;;;;;;;2.22;0.65;;;;;;;10.74;nan;101369.03;2110821;28;20875;-74
2023/10/06 03:05:46;;;;;;;5.82;0.93;;;;;;;10.75;nan;101358.03;2091335;28;20021;-74
2023/10/06 03:06:58;;;;;;;4.18;0.98;;;;;;;10.78;nan;101362.91;2084747;28;20966;-74
2023/10/06 03:08:11;;;;;;;2.53;0.60;;;;;;;10.78;nan;101359.38;2096641;28;20029;-75
2023/10/06 03:09:14;;;;;;;2.92;1.10;;;;;;;10.78;nan;101357.50;2116506;28;20130;-75
2023/10/06 03:10:26;;;;;;;6.85;2.28;;;;;;;10.82;nan;101361.28;2107584;28;20032;-75
2023/10/06 03:11:30;;;;;;;6.40;2.72;;;;;;;10.82;nan;101355.91;2097864;28;20219;-74
2023/10/06 03:12:32;;;;;;;6.93;2.85;;;;;;;10.81;nan;101357.00;2100031;28;20896;-75
2023/10/06 03:13:58;;;;;;;3.80;1.48;;;;;;;10.80;nan;101355.34;2101702;28;20044;-75
2023/10/06 03:15:28;;;;;;;3.33;0.88;;;;;;;10.81;nan;101365.06;2090657;28;20781;-75
2023/10/06 03:16:32;;;;;;;6.07;0.77;;;;;;;10.80;nan;101363.41;2082018;28;20025;-75
2023/10/06 03:17:36;;;;;;;4.18;0.85;;;;;;;10.79;nan;101361.81;2091342;28;20087;-75
2023/10/06 03:18:38;;;;;;;1.85;0.80;;;;;;;10.81;nan;101365.06;2083356;28;20967;-76
2023/10/06 03:19:44;;;;;;;3.63;0.68;;;;;;;10.85;nan;101365.34;2074874;28;20064;-76
2023/10/06 03:21:13;;;;;;;3.65;1.02;;;;;;;10.87;nan;101371.25;2083846;28;20061;-75
2023/10/06 03:22:27;;;;;;;4.75;0.80;;;;;;;10.88;nan;101357.56;2099124;28;20929;-75
2023/10/06 03:23:37;;;;;;;6.03;0.70;;;;;;;10.89;nan;101361.06;2100292;28;20099;-75
2023/10/06 03:25:00;;;;;;;3.55;0.80;;;;;;;10.92;nan;101365.13;2115154;28;20890;-76
2023/10/06 03:26:51;;;;;;;2.20;0.90;;;;;;;10.94;nan;101358.41;2102496;28;20040;-76
2023/10/06 03:27:32;;;;;;;5.10;0.77;;;;;;;10.97;nan;101362.44;2096858;28;20779;-76
2023/10/06 03:28:36;;;;;;;6.25;0.93;;;;;;;10.99;nan;101357.59;2107840;28;20031;-76
2023/10/06 03:29:46;;;;;;;3.33;0.60;;;;;;;11.01;nan;101364.34;2099270;28;20129;-76
2023/10/06 03:30:52;;;;;;;4.10;0.90;;;;;;;11.03;nan;101362.19;2100614;28;20899;-76
2023/10/06 03:32:02;;;;;;;3.97;0.90;;;;;;;11.05;nan;101353.88;2100282;28;20017;-76
2023/10/06 03:33:11;;;;;;;13.55;1.17;;;;;;;11.05;nan;101353.88;2101034;28;20029;-76
2023/10/06 03:34:16;;;;;;;2.63;0.77;;;;;;;11.04;nan;101352.25;2091801;28;20151;-75
2023/10/06 03:35:35;;;;;;;6.05;1.00;;;;;;;11.02;nan;101355.19;2091556;28;20033;-79
2023/10/06 03:36:52;;;;;;;5.05;1.33;;;;;;;11.02;nan;101359.78;2093586;28;20045;-77
2023/10/06 03:38:08;;;;;;;7.78;0.80;;;;;;;11.06;nan;101358.19;2091765;28;20042;-77
2023/10/06 03:39:22;;;;;;;6.60;1.50;;;;;;;11.03;nan;101356.81;2095828;28;20048;-78
2023/10/06 03:40:44;;;;;;;4.28;0.73;;;;;;;10.90;nan;101336.56;2099656;28;20068;-78
2023/10/06 03:42:01;;;;;;;2.00;1.00;;;;;;;11.05;nan;101361.94;2093035;28;20047;-78
2023/10/06 03:43:06;;;;;;;4.15;0.70;;;;;;;11.04;nan;101358.44;2083342;28;21108;-78
2023/10/06 03:44:11;;;;;;;2.33;0.82;;;;;;;11.03;nan;101359.50;2083602;28;20144;-78
2023/10/06 03:45:31;;;;;;;2.50;0.80;;;;;;;11.04;nan;101361.16;2091724;28;20037;-78
2023/10/06 03:46:51;;;;;;;4.45;1.10;;;;;;;11.05;nan;101361.94;2095509;28;20047;-78
2023/10/06 03:47:53;;;;;;;1.20;0.70;;;;;;;11.04;nan;101360.34;2091000;28;20025;-78
2023/10/06 03:48:55;;;;;;;4.95;0.85;;;;;;;11.04;nan;101358.44;2082854;28;20029;-78
2023/10/06 03:49:57;;;;;;;3.75;0.88;;;;;;;11.05;nan;101361.94;2091471;28;20148;-78
2023/10/06 03:51:02;;;;;;;3.97;0.80;;;;;;;11.06;nan;101366.25;2090716;28;20045;-76
2023/10/06 03:52:09;;;;;;;6.13;1.10;;;;;;;11.05;nan;101356.56;2091786;28;20029;-77
2023/10/06 03:53:28;;;;;;;3.20;1.00;;;;;;;11.06;nan;101360.88;2101359;28;20037;-77
2023/10/06 03:54:32;;;;;;;5.10;1.25;;;;;;;11.04;nan;101355.75;2105377;28;20059;-78
2023/10/06 03:55:46;;;;;;;5.30;1.05;;;;;;;11.05;nan;101362.75;2082820;28;20670;-78
2023/10/06 03:56:50;;;;;;;5.15;1.17;;;;;;;11.08;nan;101358.72;2093344;28;20077;-77
2023/10/06 03:57:58;;;;;;;4.15;0.93;;;;;;;11.07;nan;101354.44;2099303;28;20033;-78
2023/10/06 03:59:12;;;;;;;5.18;0.93;;;;;;;11.07;nan;101367.88;2091917;28;20044;-79
2023/10/06 04:00:19;;;;;;;2.15;0.85;;;;;;;11.07;nan;101365.19;2108392;28;20040;-79
2023/10/06 04:01:31;;;;;;;1.27;0.82;;;;;;;11.06;nan;101360.88;2109147;28;20038;-78
2023/10/06 04:02:38;;;;;;;2.53;1.08;;;;;;;11.09;nan;101371.09;2116320;28;20024;-78
2023/10/06 04:03:40;;;;;;;5.95;1.00;;;;;;;11.05;nan;101365.44;2098396;28;20879;-79
2023/10/06 04:04:42;;;;;;;3.35;0.82;;;;;;;11.02;nan;101365.97;2090773;28;20141;-76
2023/10/06 04:05:50;;;;;;;2.10;1.02;;;;;;;11.01;nan;101364.34;2115553;27;20139;-76
2023/10/06 04:07:09;;;;;;;4.07;0.85;;;;;;;11.01;nan;101367.03;2106213;28;20051;-77
2023/10/06 04:08:15;;;;;;;3.75;1.15;;;;;;;11.04;nan;101371.91;2098912;28;20087;-76
2023/10/06 04:09:27;;;;;;;4.15;0.80;;;;;;;11.04;nan;101371.91;2092243;28;20202;-77
2023/10/06 04:10:29;;;;;;;2.38;1.10;;;;;;;11.04;nan;101365.72;2093600;28;20876;-76
2023/10/06 04:11:34;;;;;;;2.90;1.10;;;;;;;11.06;nan;101371.63;2090991;28;20057;-80
2023/10/06 04:12:38;;;;;;;9.63;1.23;;;;;;;11.07;nan;101378.66;2099415;28;20044;-77
2023/10/06 04:13:40;;;;;;;3.05;1.10;;;;;;;11.05;nan;101376.22;2107685;28;20031;-77
2023/10/06 04:14:43;;;;;;;2.97;0.95;;;;;;;11.06;nan;101377.00;2107583;28;20113;-77
2023/10/06 04:15:57;;;;;;;1.90;1.00;;;;;;;11.08;nan;101385.66;2099157;28;20040;-77
2023/10/06 04:17:01;;;;;;;3.47;0.85;;;;;;;11.07;nan;101384.03;2096322;28;20916;-78
2023/10/06 04:18:09;;;;;;;5.72;0.90;;;;;;;11.07;nan;101384.03;2115742;28;20036;-78
2023/10/06 04:19:12;;;;;;;2.30;0.95;;;;;;;11.07;nan;101392.09;2098889;28;20057;-78
2023/10/06 04:20:13;;;;;;;2.67;0.93;;;;;;;11.04;nan;101385.38;2091343;28;20103;-77
2023/10/06 04:21:18;;;;;;;2.55;0.90;;;;;;;11.05;nan;101388.84;2107163;28;20040;-78
2023/10/06 04:22:20;;;;;;;5.82;0.90;;;;;;;11.05;nan;101388.84;2107631;28;20039;-77
2023/10/06 04:23:25;;;;;;;2.38;1.08;;;;;;;11.03;nan;101391.78;2098585;28;20902;-76
2023/10/06 04:24:27;;;;;;;2.97;0.90;;;;;;;11.06;nan;101395.84;2099229;28;20112;-76
2023/10/06 04:25:29;;;;;;;2.72;1.00;;;;;;;11.08;nan;101396.41;2098585;28;20152;-77
2023/10/06 04:26:30;;;;;;;2.95;0.90;;;;;;;11.10;nan;101392.41;2098987;28;20071;-77
2023/10/06 04:27:36;;;;;;;5.00;0.80;;;;;;;11.09;nan;101387.25;2105887;28;20040;-77
2023/10/06 04:28:37;;;;;;;2.55;1.02;;;;;;;11.11;nan;101393.19;2090513;28;20067;-77
2023/10/06 04:29:40;;;;;;;2.05;0.82;;;;;;;11.10;nan;101391.59;2099002;28;20075;-77
2023/10/06 04:30:44;;;;;;;5.20;1.20;;;;;;;11.11;nan;101391.31;2090412;28;20108;-79
2023/10/06 04:31:46;;;;;;;3.78;0.90;;;;;;;11.10;nan;101387.00;2100336;28;20044;-77
2023/10/06 04:32:50;;;;;;;2.63;1.02;;;;;;;11.10;nan;101387.00;2107692;28;20028;-75
2023/10/06 04:33:55;;;;;;;2.35;0.80;;;;;;;11.08;nan;101389.16;2098317;28;20027;-76
2023/10/06 04:34:57;;;;;;;3.35;0.82;;;;;;;11.05;nan;101380.78;2077438;28;20037;-80
2023/10/06 04:36:07;;;;;;;4.03;0.88;;;;;;;11.02;nan;101386.69;2090655;28;20119;-78
2023/10/06 04:37:29;;;;;;;2.92;1.13;;;;;;;11.00;nan;101378.06;2093868;28;20025;-76
2023/10/06 04:38:31;;;;;;;3.60;1.70;;;;;;;10.99;nan;101382.63;2093885;28;20048;-78
2023/10/06 04:39:33;;;;;;;2.38;1.08;;;;;;;11.01;nan;101374.31;2099417;28;20039;-81
2023/10/06 04:40:37;;;;;;;3.85;0.95;;;;;;;11.02;nan;101379.41;2115673;28;20058;-80
2023/10/06 04:41:41;;;;;;;2.60;1.05;;;;;;;11.03;nan;101383.72;2090418;28;21165;-80
2023/10/06 04:42:49;;;;;;;5.45;1.25;;;;;;;11.02;nan;101386.69;2099210;28;20103;-78
2023/10/06 04:44:02;;;;;;;5.45;1.73;;;;;;;11.04;nan;101379.19;2107062;28;20960;-78
2023/10/06 04:45:12;;;;;;;4.88;1.90;;;;;;;11.04;nan;101377.28;2100503;28;20919;-78
2023/10/06 04:46:17;;;;;;;5.90;1.30;;;;;;;11.05;nan;101380.78;2100673;28;20044;-77
2023/10/06 04:47:19;;;;;;;6.03;1.60;;;;;;;11.05;nan;101378.91;2091125;28;20080;-80
2023/10/06 04:48:24;;;;;;;10.23;1.35;;;;;;;11.06;nan;101377.00;2090278;28;20096;-80
2023/10/06 04:49:31;;;;;;;6.45;1.67;;;;;;;11.06;nan;101379.72;2098746;28;20611;-80
2023/10/06 04:50:34;;;;;;;4.90;1.52;;;;;;;11.04;nan;101385.38;2098105;28;20135;-80
2023/10/06 04:51:36;;;;;;;5.35;1.75;;;;;;;11.02;nan;101376.72;2080849;28;20046;-80
2023/10/06 04:52:44;;;;;;;5.45;1.40;;;;;;;10.99;nan;101381.81;2082574;28;20888;-79
2023/10/06 04:53:50;;;;;;;4.93;1.77;;;;;;;10.96;nan;101380.47;2098931;28;20067;-79
2023/10/06 04:54:54;;;;;;;8.13;1.75;;;;;;;10.95;nan;101380.75;2105569;28;20045;-80
2023/10/06 04:55:57;;;;;;;5.28;2.00;;;;;;;10.95;nan;101380.75;2106044;28;20044;-79
2023/10/06 04:57:03;;;;;;;7.03;2.13;;;;;;;10.88;nan;101372.91;2114158;28;20043;-80
2023/10/06 04:58:24;;;;;;;8.77;2.00;;;;;;;10.93;nan;101369.41;2105480;28;20044;-79
2023/10/06 04:59:26;;;;;;;8.05;1.83;;;;;;;10.94;nan;101374.56;2095296;28;20033;-76
2023/10/06 05:00:33;;;;;;;7.68;1.83;;;;;;;10.93;nan;101372.91;2088916;28;21421;-81
2023/10/06 05:01:34;;;;;;;5.05;1.65;;;;;;;10.95;nan;101380.75;2089590;28;20040;-78
2023/10/06 05:02:42;;;;;;;5.07;1.88;;;;;;;10.94;nan;101379.09;2080862;28;20022;-78
2023/10/06 05:03:47;;;;;;;8.80;2.15;;;;;;;10.96;nan;101382.34;2106779;28;20067;-79
2023/10/06 05:04:49;;;;;;;4.57;1.60;;;;;;;10.93;nan;101372.09;2105969;28;20824;-75
2023/10/06 05:05:55;;;;;;;7.60;1.92;;;;;;;10.93;nan;101374.78;2097757;28;20126;-80
2023/10/06 05:06:57;;;;;;;5.97;1.75;;;;;;;10.90;nan;101373.44;2097941;28;20138;-78
2023/10/06 05:07:59;;;;;;;5.60;2.00;;;;;;;10.92;nan;101370.50;2089515;28;20103;-79
2023/10/06 05:09:02;;;;;;;8.20;1.70;;;;;;;10.92;nan;101376.69;2105846;28;20994;-76
2023/10/06 05:10:11;;;;;;;4.63;1.80;;;;;;;10.92;nan;101365.13;2105488;28;20098;-77
2023/10/06 05:11:17;;;;;;;6.90;2.00;;;;;;;10.92;nan;101367.81;2082590;28;20084;-76
2023/10/06 05:12:18;;;;;;;6.50;1.52;;;;;;;10.93;nan;101372.91;2080737;28;20034;-77
2023/10/06 05:13:21;;;;;;;3.45;1.38;;;;;;;10.95;nan;101376.16;2080994;28;20029;-79
2023/10/06 05:14:23;;;;;;;5.35;1.73;;;;;;;10.98;nan;101372.16;2089525;28;20959;-76
2023/10/06 05:15:32;;;;;;;5.57;1.20;;;;;;;10.97;nan;101374.03;2088720;28;20876;-73
2023/10/06 05:16:34;;;;;;;8.15;1.35;;;;;;;10.99;nan;101379.94;2088972;28;20041;-82
2023/10/06 05:17:39;;;;;;;3.20;1.20;;;;;;;10.99;nan;101381.81;2081414;28;20048;-81
2023/10/06 05:18:50;;;;;;;6.30;2.03;;;;;;;10.98;nan;101383.72;2099222;28;20060;-80
2023/10/06 05:19:52;;;;;;;6.47;1.30;;;;;;;10.94;nan;101385.31;2105486;28;20024;-76